sensor_id;sensor_type;location;lat;lon;timestamp;temperature;humidity
15394;DHT22;7795;47.986;11.868;2023-07-13T00:00:13;22.60;73.80
15394;DHT22;7795;47.986;11.868;2023-07-13T00:02:41;22.60;73.90
15394;DHT22;7795;47.986;11.868;2023-07-13T00:05:07;22.60;74.00
15394;DHT22;7795;47.986;11.868;2023-07-13T00:07:33;22.60;74.20
15394;DHT22;7795;47.986;11.868;2023-07-13T00:09:59;22.60;74.30
15394;DHT22;7795;47.986;11.868;2023-07-13T00:12:28;22.60;74.20
15394;DHT22;7795;47.986;11.868;2023-07-13T00:15:00;22.60;74.30
15394;DHT22;7795;47.986;11.868;2023-07-13T00:17:26;22.70;74.60
15394;DHT22;7795;47.986;11.868;2023-07-13T00:19:52;22.70;75.10
15394;DHT22;7795;47.986;11.868;2023-07-13T00:22:18;22.70;74.30
15394;DHT22;7795;47.986;11.868;2023-07-13T00:24:45;22.70;74.40
15394;DHT22;7795;47.986;11.868;2023-07-13T00:27:11;22.70;74.30
15394;DHT22;7795;47.986;11.868;2023-07-13T00:29:37;22.70;74.40
15394;DHT22;7795;47.986;11.868;2023-07-13T00:32:05;22.70;74.40
15394;DHT22;7795;47.986;11.868;2023-07-13T00:34:32;22.70;74.60
15394;DHT22;7795;47.986;11.868;2023-07-13T00:36:58;22.70;75.20
15394;DHT22;7795;47.986;11.868;2023-07-13T00:39:24;22.60;74.40
15394;DHT22;7795;47.986;11.868;2023-07-13T00:41:50;22.70;74.40
15394;DHT22;7795;47.986;11.868;2023-07-13T00:44:17;22.60;74.40
15394;DHT22;7795;47.986;11.868;2023-07-13T00:46:43;22.60;74.40
15394;DHT22;7795;47.986;11.868;2023-07-13T00:49:13;22.60;74.40
15394;DHT22;7795;47.986;11.868;2023-07-13T00:51:45;22.60;74.70
15394;DHT22;7795;47.986;11.868;2023-07-13T00:54:17;22.60;74.80
15394;DHT22;7795;47.986;11.868;2023-07-13T00:56:44;22.50;74.60
15394;DHT22;7795;47.986;11.868;2023-07-13T00:59:12;22.50;74.60
15394;DHT22;7795;47.986;11.868;2023-07-13T01:01:38;22.50;74.60
15394;DHT22;7795;47.986;11.868;2023-07-13T01:04:04;22.50;74.60
15394;DHT22;7795;47.986;11.868;2023-07-13T01:06:35;22.50;74.70
15394;DHT22;7795;47.986;11.868;2023-07-13T01:09:01;22.40;74.80
15394;DHT22;7795;47.986;11.868;2023-07-13T01:11:28;22.40;74.90
15394;DHT22;7795;47.986;11.868;2023-07-13T01:13:53;22.40;75.00
15394;DHT22;7795;47.986;11.868;2023-07-13T01:16:24;22.40;75.10
15394;DHT22;7795;47.986;11.868;2023-07-13T01:18:50;22.40;75.40
15394;DHT22;7795;47.986;11.868;2023-07-13T01:21:17;22.40;75.30
15394;DHT22;7795;47.986;11.868;2023-07-13T01:23:44;22.30;75.40
15394;DHT22;7795;47.986;11.868;2023-07-13T01:26:10;22.30;75.40
15394;DHT22;7795;47.986;11.868;2023-07-13T01:28:37;22.30;75.30
15394;DHT22;7795;47.986;11.868;2023-07-13T01:31:03;22.30;75.30
15394;DHT22;7795;47.986;11.868;2023-07-13T01:33:29;22.30;75.40
15394;DHT22;7795;47.986;11.868;2023-07-13T01:35:55;22.30;75.40
15394;DHT22;7795;47.986;11.868;2023-07-13T01:38:24;22.30;75.40
15394;DHT22;7795;47.986;11.868;2023-07-13T01:40:51;22.30;75.60
15394;DHT22;7795;47.986;11.868;2023-07-13T01:43:17;22.20;75.50
15394;DHT22;7795;47.986;11.868;2023-07-13T01:45:43;22.20;76.40
15394;DHT22;7795;47.986;11.868;2023-07-13T01:48:09;22.20;75.80
15394;DHT22;7795;47.986;11.868;2023-07-13T01:50:35;22.20;75.90
15394;DHT22;7795;47.986;11.868;2023-07-13T01:53:02;22.20;76.00
15394;DHT22;7795;47.986;11.868;2023-07-13T01:55:29;22.20;76.00
15394;DHT22;7795;47.986;11.868;2023-07-13T01:57:55;22.20;76.10
15394;DHT22;7795;47.986;11.868;2023-07-13T02:00:21;22.10;75.90
15394;DHT22;7795;47.986;11.868;2023-07-13T02:02:47;22.10;75.90
15394;DHT22;7795;47.986;11.868;2023-07-13T02:05:13;22.10;75.90
15394;DHT22;7795;47.986;11.868;2023-07-13T02:07:39;22.10;76.10
15394;DHT22;7795;47.986;11.868;2023-07-13T02:10:06;22.10;76.10
15394;DHT22;7795;47.986;11.868;2023-07-13T02:12:34;22.10;76.10
15394;DHT22;7795;47.986;11.868;2023-07-13T02:15:00;22.10;76.40
15394;DHT22;7795;47.986;11.868;2023-07-13T02:17:26;22.10;77.10
15394;DHT22;7795;47.986;11.868;2023-07-13T02:19:52;22.10;76.40
15394;DHT22;7795;47.986;11.868;2023-07-13T02:22:17;22.00;76.40
15394;DHT22;7795;47.986;11.868;2023-07-13T02:24:43;22.10;76.60
15394;DHT22;7795;47.986;11.868;2023-07-13T02:27:09;22.00;76.60
15394;DHT22;7795;47.986;11.868;2023-07-13T02:29:36;22.10;76.60
15394;DHT22;7795;47.986;11.868;2023-07-13T02:32:02;22.10;76.70
15394;DHT22;7795;47.986;11.868;2023-07-13T02:34:28;22.10;76.80
15394;DHT22;7795;47.986;11.868;2023-07-13T02:36:54;22.10;76.90
15394;DHT22;7795;47.986;11.868;2023-07-13T02:39:19;22.10;76.90
15394;DHT22;7795;47.986;11.868;2023-07-13T02:41:45;22.10;77.00
15394;DHT22;7795;47.986;11.868;2023-07-13T02:44:12;22.10;77.00
15394;DHT22;7795;47.986;11.868;2023-07-13T02:46:40;22.10;76.90
15394;DHT22;7795;47.986;11.868;2023-07-13T02:49:06;22.10;76.70
15394;DHT22;7795;47.986;11.868;2023-07-13T02:51:32;22.10;76.60
15394;DHT22;7795;47.986;11.868;2023-07-13T02:53:59;22.10;76.60
15394;DHT22;7795;47.986;11.868;2023-07-13T02:56:27;22.10;76.60
15394;DHT22;7795;47.986;11.868;2023-07-13T02:58:53;22.10;76.50
15394;DHT22;7795;47.986;11.868;2023-07-13T03:01:20;22.10;76.50
15394;DHT22;7795;47.986;11.868;2023-07-13T03:03:49;22.10;76.50
15394;DHT22;7795;47.986;11.868;2023-07-13T03:06:15;22.10;76.70
15394;DHT22;7795;47.986;11.868;2023-07-13T03:08:42;22.10;76.50
15394;DHT22;7795;47.986;11.868;2023-07-13T03:11:09;22.10;76.40
15394;DHT22;7795;47.986;11.868;2023-07-13T03:13:36;22.10;76.50
15394;DHT22;7795;47.986;11.868;2023-07-13T03:16:03;22.10;76.40
15394;DHT22;7795;47.986;11.868;2023-07-13T03:18:29;22.10;76.40
15394;DHT22;7795;47.986;11.868;2023-07-13T03:20:56;22.10;76.60
15394;DHT22;7795;47.986;11.868;2023-07-13T03:23:23;22.10;76.70
15394;DHT22;7795;47.986;11.868;2023-07-13T03:25:49;22.10;76.70
15394;DHT22;7795;47.986;11.868;2023-07-13T03:28:15;22.10;77.40
15394;DHT22;7795;47.986;11.868;2023-07-13T03:30:40;22.10;77.30
15394;DHT22;7795;47.986;11.868;2023-07-13T03:33:06;22.00;76.40
15394;DHT22;7795;47.986;11.868;2023-07-13T03:35:33;22.00;76.50
15394;DHT22;7795;47.986;11.868;2023-07-13T03:38:00;22.00;76.60
15394;DHT22;7795;47.986;11.868;2023-07-13T03:40:26;21.90;76.80
15394;DHT22;7795;47.986;11.868;2023-07-13T03:42:52;21.90;76.90
15394;DHT22;7795;47.986;11.868;2023-07-13T03:45:18;21.90;77.10
15394;DHT22;7795;47.986;11.868;2023-07-13T03:47:44;21.80;78.00
15394;DHT22;7795;47.986;11.868;2023-07-13T03:50:10;21.80;77.40
15394;DHT22;7795;47.986;11.868;2023-07-13T03:52:36;21.80;77.60
15394;DHT22;7795;47.986;11.868;2023-07-13T03:55:04;21.80;77.90
15394;DHT22;7795;47.986;11.868;2023-07-13T03:57:31;21.80;78.20
15394;DHT22;7795;47.986;11.868;2023-07-13T03:59:57;21.70;78.20
15394;DHT22;7795;47.986;11.868;2023-07-13T04:02:22;21.70;78.30
15394;DHT22;7795;47.986;11.868;2023-07-13T04:04:48;21.70;78.30
15394;DHT22;7795;47.986;11.868;2023-07-13T04:07:14;21.70;78.30
15394;DHT22;7795;47.986;11.868;2023-07-13T04:09:39;21.70;78.30
15394;DHT22;7795;47.986;11.868;2023-07-13T04:12:07;21.70;78.30
15394;DHT22;7795;47.986;11.868;2023-07-13T04:14:33;21.70;78.30
15394;DHT22;7795;47.986;11.868;2023-07-13T04:16:59;21.60;78.20
15394;DHT22;7795;47.986;11.868;2023-07-13T04:19:24;21.60;78.30
15394;DHT22;7795;47.986;11.868;2023-07-13T04:21:50;21.60;78.40
15394;DHT22;7795;47.986;11.868;2023-07-13T04:24:16;21.60;78.40
15394;DHT22;7795;47.986;11.868;2023-07-13T04:26:41;21.60;78.50
15394;DHT22;7795;47.986;11.868;2023-07-13T04:29:08;21.60;78.70
15394;DHT22;7795;47.986;11.868;2023-07-13T04:31:34;21.60;78.70
15394;DHT22;7795;47.986;11.868;2023-07-13T04:34:00;21.60;78.50
15394;DHT22;7795;47.986;11.868;2023-07-13T04:36:26;21.60;78.40
15394;DHT22;7795;47.986;11.868;2023-07-13T04:38:52;21.60;78.40
15394;DHT22;7795;47.986;11.868;2023-07-13T04:41:20;21.60;78.40
15394;DHT22;7795;47.986;11.868;2023-07-13T04:43:46;21.60;78.60
15394;DHT22;7795;47.986;11.868;2023-07-13T04:46:15;21.60;79.20
15394;DHT22;7795;47.986;11.868;2023-07-13T04:48:43;21.60;78.50
15394;DHT22;7795;47.986;11.868;2023-07-13T04:51:09;21.60;78.40
15394;DHT22;7795;47.986;11.868;2023-07-13T04:53:35;21.60;78.40
15394;DHT22;7795;47.986;11.868;2023-07-13T04:56:01;21.60;78.40
15394;DHT22;7795;47.986;11.868;2023-07-13T04:58:27;21.60;78.40
15394;DHT22;7795;47.986;11.868;2023-07-13T05:00:53;21.60;78.40
15394;DHT22;7795;47.986;11.868;2023-07-13T05:03:25;21.60;78.20
15394;DHT22;7795;47.986;11.868;2023-07-13T05:05:55;21.60;78.30
15394;DHT22;7795;47.986;11.868;2023-07-13T05:08:21;21.60;78.40
15394;DHT22;7795;47.986;11.868;2023-07-13T05:10:47;21.60;78.20
15394;DHT22;7795;47.986;11.868;2023-07-13T05:13:12;21.60;78.00
15394;DHT22;7795;47.986;11.868;2023-07-13T05:15:38;21.50;78.00
15394;DHT22;7795;47.986;11.868;2023-07-13T05:18:04;21.50;77.90
15394;DHT22;7795;47.986;11.868;2023-07-13T05:20:31;21.50;77.90
15394;DHT22;7795;47.986;11.868;2023-07-13T05:22:57;21.50;77.90
15394;DHT22;7795;47.986;11.868;2023-07-13T05:25:22;21.50;77.90
15394;DHT22;7795;47.986;11.868;2023-07-13T05:27:48;21.50;78.00
15394;DHT22;7795;47.986;11.868;2023-07-13T05:30:14;21.50;78.00
15394;DHT22;7795;47.986;11.868;2023-07-13T05:32:40;21.50;78.10
15394;DHT22;7795;47.986;11.868;2023-07-13T05:35:06;21.60;78.20
15394;DHT22;7795;47.986;11.868;2023-07-13T05:37:34;21.60;78.90
15394;DHT22;7795;47.986;11.868;2023-07-13T05:40:00;21.60;78.00
15394;DHT22;7795;47.986;11.868;2023-07-13T05:42:26;21.60;78.00
15394;DHT22;7795;47.986;11.868;2023-07-13T05:44:51;21.60;78.10
15394;DHT22;7795;47.986;11.868;2023-07-13T05:47:17;21.60;78.20
15394;DHT22;7795;47.986;11.868;2023-07-13T05:49:43;21.60;78.20
15394;DHT22;7795;47.986;11.868;2023-07-13T05:52:09;21.60;78.20
15394;DHT22;7795;47.986;11.868;2023-07-13T05:54:36;21.70;78.30
15394;DHT22;7795;47.986;11.868;2023-07-13T05:57:01;21.60;78.20
15394;DHT22;7795;47.986;11.868;2023-07-13T05:59:27;21.70;78.00
15394;DHT22;7795;47.986;11.868;2023-07-13T06:01:53;21.70;78.00
15394;DHT22;7795;47.986;11.868;2023-07-13T06:04:19;21.70;78.00
15394;DHT22;7795;47.986;11.868;2023-07-13T06:06:45;21.70;77.80
15394;DHT22;7795;47.986;11.868;2023-07-13T06:09:11;21.70;77.80
15394;DHT22;7795;47.986;11.868;2023-07-13T06:11:38;21.70;77.70
15394;DHT22;7795;47.986;11.868;2023-07-13T06:14:04;21.70;77.80
15394;DHT22;7795;47.986;11.868;2023-07-13T06:16:30;21.80;77.90
15394;DHT22;7795;47.986;11.868;2023-07-13T06:18:55;21.80;77.90
15394;DHT22;7795;47.986;11.868;2023-07-13T06:21:22;21.80;77.70
15394;DHT22;7795;47.986;11.868;2023-07-13T06:23:49;21.70;77.50
15394;DHT22;7795;47.986;11.868;2023-07-13T06:26:16;21.80;77.70
15394;DHT22;7795;47.986;11.868;2023-07-13T06:28:43;21.70;77.90
15394;DHT22;7795;47.986;11.868;2023-07-13T06:31:10;21.80;78.20
15394;DHT22;7795;47.986;11.868;2023-07-13T06:33:37;21.80;78.20
15394;DHT22;7795;47.986;11.868;2023-07-13T06:36:03;21.90;78.20
15394;DHT22;7795;47.986;11.868;2023-07-13T06:38:29;21.90;78.20
15394;DHT22;7795;47.986;11.868;2023-07-13T06:40:55;21.90;78.20
15394;DHT22;7795;47.986;11.868;2023-07-13T06:43:21;22.00;78.10
15394;DHT22;7795;47.986;11.868;2023-07-13T06:45:48;22.10;77.90
15394;DHT22;7795;47.986;11.868;2023-07-13T06:48:15;22.20;78.90
15394;DHT22;7795;47.986;11.868;2023-07-13T06:50:41;22.20;77.90
15394;DHT22;7795;47.986;11.868;2023-07-13T06:53:07;22.30;77.80
15394;DHT22;7795;47.986;11.868;2023-07-13T06:55:33;22.40;77.70
15394;DHT22;7795;47.986;11.868;2023-07-13T06:57:59;22.40;77.40
15394;DHT22;7795;47.986;11.868;2023-07-13T07:00:24;22.50;77.20
15394;DHT22;7795;47.986;11.868;2023-07-13T07:02:52;22.50;77.10
15394;DHT22;7795;47.986;11.868;2023-07-13T07:05:17;22.60;77.10
15394;DHT22;7795;47.986;11.868;2023-07-13T07:07:44;22.60;77.00
15394;DHT22;7795;47.986;11.868;2023-07-13T07:10:09;22.70;76.80
15394;DHT22;7795;47.986;11.868;2023-07-13T07:12:35;22.70;76.70
15394;DHT22;7795;47.986;11.868;2023-07-13T07:15:01;22.70;76.30
15394;DHT22;7795;47.986;11.868;2023-07-13T07:17:26;22.70;76.20
15394;DHT22;7795;47.986;11.868;2023-07-13T07:19:54;22.80;76.10
15394;DHT22;7795;47.986;11.868;2023-07-13T07:22:19;22.80;76.10
15394;DHT22;7795;47.986;11.868;2023-07-13T07:24:45;22.80;76.00
15394;DHT22;7795;47.986;11.868;2023-07-13T07:27:11;22.80;75.90
15394;DHT22;7795;47.986;11.868;2023-07-13T07:29:37;22.90;76.10
15394;DHT22;7795;47.986;11.868;2023-07-13T07:32:03;22.90;76.60
15394;DHT22;7795;47.986;11.868;2023-07-13T07:34:29;22.90;76.00
15394;DHT22;7795;47.986;11.868;2023-07-13T07:36:59;22.90;76.30
15394;DHT22;7795;47.986;11.868;2023-07-13T07:39:25;23.00;75.70
15394;DHT22;7795;47.986;11.868;2023-07-13T07:41:51;23.00;75.70
15394;DHT22;7795;47.986;11.868;2023-07-13T07:44:17;23.00;75.40
15394;DHT22;7795;47.986;11.868;2023-07-13T07:46:43;23.00;75.30
15394;DHT22;7795;47.986;11.868;2023-07-13T07:49:08;23.00;75.40
15394;DHT22;7795;47.986;11.868;2023-07-13T07:51:34;23.10;75.60
15394;DHT22;7795;47.986;11.868;2023-07-13T07:54:01;23.10;75.40
15394;DHT22;7795;47.986;11.868;2023-07-13T07:56:27;23.10;75.30
15394;DHT22;7795;47.986;11.868;2023-07-13T07:58:53;23.10;74.80
15394;DHT22;7795;47.986;11.868;2023-07-13T08:01:18;23.10;74.80
15394;DHT22;7795;47.986;11.868;2023-07-13T08:03:44;23.10;75.50
15394;DHT22;7795;47.986;11.868;2023-07-13T08:06:10;23.10;74.60
15394;DHT22;7795;47.986;11.868;2023-07-13T08:08:36;23.10;74.30
15394;DHT22;7795;47.986;11.868;2023-07-13T08:11:04;23.10;74.10
15394;DHT22;7795;47.986;11.868;2023-07-13T08:13:30;23.10;73.70
15394;DHT22;7795;47.986;11.868;2023-07-13T08:15:55;23.10;73.70
15394;DHT22;7795;47.986;11.868;2023-07-13T08:18:21;23.00;73.50
15394;DHT22;7795;47.986;11.868;2023-07-13T08:20:47;23.00;73.50
15394;DHT22;7795;47.986;11.868;2023-07-13T08:23:13;23.00;73.50
15394;DHT22;7795;47.986;11.868;2023-07-13T08:25:38;23.00;73.60
15394;DHT22;7795;47.986;11.868;2023-07-13T08:28:05;23.00;73.50
15394;DHT22;7795;47.986;11.868;2023-07-13T08:30:31;22.90;73.40
15394;DHT22;7795;47.986;11.868;2023-07-13T08:32:57;22.90;73.30
15394;DHT22;7795;47.986;11.868;2023-07-13T08:35:22;22.90;73.40
15394;DHT22;7795;47.986;11.868;2023-07-13T08:37:48;22.90;73.40
15394;DHT22;7795;47.986;11.868;2023-07-13T08:40:14;22.90;73.60
15394;DHT22;7795;47.986;11.868;2023-07-13T08:42:44;22.90;73.50
15394;DHT22;7795;47.986;11.868;2023-07-13T08:45:20;22.90;73.50
15394;DHT22;7795;47.986;11.868;2023-07-13T08:47:51;22.90;73.50
15394;DHT22;7795;47.986;11.868;2023-07-13T08:50:22;22.90;73.60
15394;DHT22;7795;47.986;11.868;2023-07-13T08:52:49;22.90;73.70
15394;DHT22;7795;47.986;11.868;2023-07-13T08:55:20;22.90;73.40
15394;DHT22;7795;47.986;11.868;2023-07-13T08:57:50;22.90;73.40
15394;DHT22;7795;47.986;11.868;2023-07-13T09:00:20;22.90;72.50
15394;DHT22;7795;47.986;11.868;2023-07-13T09:02:48;22.90;72.10
15394;DHT22;7795;47.986;11.868;2023-07-13T09:05:18;22.80;72.10
15394;DHT22;7795;47.986;11.868;2023-07-13T09:07:58;22.80;72.20
15394;DHT22;7795;47.986;11.868;2023-07-13T09:10:28;22.80;71.80
15394;DHT22;7795;47.986;11.868;2023-07-13T09:13:12;22.80;72.20
15394;DHT22;7795;47.986;11.868;2023-07-13T09:15:46;22.70;72.00
15394;DHT22;7795;47.986;11.868;2023-07-13T09:18:21;22.70;73.00
15394;DHT22;7795;47.986;11.868;2023-07-13T09:20:50;22.70;72.20
15394;DHT22;7795;47.986;11.868;2023-07-13T09:23:19;22.70;72.00
15394;DHT22;7795;47.986;11.868;2023-07-13T09:25:47;22.70;72.30
15394;DHT22;7795;47.986;11.868;2023-07-13T09:28:17;22.70;72.00
15394;DHT22;7795;47.986;11.868;2023-07-13T09:30:51;22.70;71.70
15394;DHT22;7795;47.986;11.868;2023-07-13T09:33:19;22.70;71.40
15394;DHT22;7795;47.986;11.868;2023-07-13T09:35:45;22.60;71.60
15394;DHT22;7795;47.986;11.868;2023-07-13T09:38:12;22.60;71.40
15394;DHT22;7795;47.986;11.868;2023-07-13T09:40:46;22.60;71.40
15394;DHT22;7795;47.986;11.868;2023-07-13T09:43:15;22.70;71.20
15394;DHT22;7795;47.986;11.868;2023-07-13T09:45:46;22.70;71.20
15394;DHT22;7795;47.986;11.868;2023-07-13T09:48:16;22.70;70.90
15394;DHT22;7795;47.986;11.868;2023-07-13T09:50:43;22.70;71.10
15394;DHT22;7795;47.986;11.868;2023-07-13T09:53:13;22.70;71.20
15394;DHT22;7795;47.986;11.868;2023-07-13T09:55:42;22.70;70.90
15394;DHT22;7795;47.986;11.868;2023-07-13T09:58:11;22.70;71.10
15394;DHT22;7795;47.986;11.868;2023-07-13T10:00:37;22.70;71.10
15394;DHT22;7795;47.986;11.868;2023-07-13T10:03:16;22.70;71.10
15394;DHT22;7795;47.986;11.868;2023-07-13T10:05:44;22.70;70.70
15394;DHT22;7795;47.986;11.868;2023-07-13T10:08:25;22.70;71.60
15394;DHT22;7795;47.986;11.868;2023-07-13T10:10:57;22.70;70.40
15394;DHT22;7795;47.986;11.868;2023-07-13T10:13:32;22.70;70.70
15394;DHT22;7795;47.986;11.868;2023-07-13T10:16:00;22.70;70.40
15394;DHT22;7795;47.986;11.868;2023-07-13T10:18:28;22.70;70.60
15394;DHT22;7795;47.986;11.868;2023-07-13T10:21:04;22.70;70.40
15394;DHT22;7795;47.986;11.868;2023-07-13T10:23:35;22.70;70.40
15394;DHT22;7795;47.986;11.868;2023-07-13T10:26:01;22.70;70.60
15394;DHT22;7795;47.986;11.868;2023-07-13T10:28:30;22.60;70.70
15394;DHT22;7795;47.986;11.868;2023-07-13T10:30:59;22.70;70.40
15394;DHT22;7795;47.986;11.868;2023-07-13T10:33:27;22.70;70.40
15394;DHT22;7795;47.986;11.868;2023-07-13T10:35:58;22.70;70.60
15394;DHT22;7795;47.986;11.868;2023-07-13T10:38:27;22.70;70.60
15394;DHT22;7795;47.986;11.868;2023-07-13T10:40:57;22.70;70.70
15394;DHT22;7795;47.986;11.868;2023-07-13T10:43:28;22.70;70.50
15394;DHT22;7795;47.986;11.868;2023-07-13T10:45:56;22.80;70.20
15394;DHT22;7795;47.986;11.868;2023-07-13T10:48:23;22.80;70.30
15394;DHT22;7795;47.986;11.868;2023-07-13T10:50:52;22.90;70.10
15394;DHT22;7795;47.986;11.868;2023-07-13T10:53:20;23.00;69.70
15394;DHT22;7795;47.986;11.868;2023-07-13T10:55:59;23.00;69.50
15394;DHT22;7795;47.986;11.868;2023-07-13T10:58:35;23.10;69.00
15394;DHT22;7795;47.986;11.868;2023-07-13T11:01:08;23.20;68.70
15394;DHT22;7795;47.986;11.868;2023-07-13T11:03:37;23.20;68.30
15394;DHT22;7795;47.986;11.868;2023-07-13T11:06:11;23.30;68.40
15394;DHT22;7795;47.986;11.868;2023-07-13T11:08:50;23.40;68.00
15394;DHT22;7795;47.986;11.868;2023-07-13T11:11:35;23.40;68.20
15394;DHT22;7795;47.986;11.868;2023-07-13T11:14:02;23.60;66.50
15394;DHT22;7795;47.986;11.868;2023-07-13T11:16:46;23.60;66.70
15394;DHT22;7795;47.986;11.868;2023-07-13T11:19:38;23.70;66.00
15394;DHT22;7795;47.986;11.868;2023-07-13T11:22:16;23.80;64.70
15394;DHT22;7795;47.986;11.868;2023-07-13T11:24:52;23.90;64.80
15394;DHT22;7795;47.986;11.868;2023-07-13T11:27:40;24.00;65.80
15394;DHT22;7795;47.986;11.868;2023-07-13T11:30:22;24.10;65.20
15394;DHT22;7795;47.986;11.868;2023-07-13T11:32:52;24.10;64.50
15394;DHT22;7795;47.986;11.868;2023-07-13T11:35:28;24.20;64.90
15394;DHT22;7795;47.986;11.868;2023-07-13T11:37:55;24.30;65.10
15394;DHT22;7795;47.986;11.868;2023-07-13T11:40:22;24.40;64.20
15394;DHT22;7795;47.986;11.868;2023-07-13T11:42:51;24.40;63.60
15394;DHT22;7795;47.986;11.868;2023-07-13T11:45:21;24.50;63.50
15394;DHT22;7795;47.986;11.868;2023-07-13T11:47:48;24.60;62.50
15394;DHT22;7795;47.986;11.868;2023-07-13T11:50:19;24.60;63.00
15394;DHT22;7795;47.986;11.868;2023-07-13T11:52:45;24.70;61.80
15394;DHT22;7795;47.986;11.868;2023-07-13T11:55:17;24.70;62.10
15394;DHT22;7795;47.986;11.868;2023-07-13T11:57:47;24.80;61.20
15394;DHT22;7795;47.986;11.868;2023-07-13T12:00:16;24.80;61.00
15394;DHT22;7795;47.986;11.868;2023-07-13T12:02:45;24.90;61.30
15394;DHT22;7795;47.986;11.868;2023-07-13T12:05:13;24.90;61.00
15394;DHT22;7795;47.986;11.868;2023-07-13T12:07:39;25.00;60.00
15394;DHT22;7795;47.986;11.868;2023-07-13T12:10:19;25.00;60.10
15394;DHT22;7795;47.986;11.868;2023-07-13T12:12:51;25.10;59.50
15394;DHT22;7795;47.986;11.868;2023-07-13T12:15:17;25.10;59.30
15394;DHT22;7795;47.986;11.868;2023-07-13T12:17:43;25.20;59.50
15394;DHT22;7795;47.986;11.868;2023-07-13T12:20:21;25.20;59.50
15394;DHT22;7795;47.986;11.868;2023-07-13T12:22:50;25.20;58.40
15394;DHT22;7795;47.986;11.868;2023-07-13T12:25:19;25.20;59.00
15394;DHT22;7795;47.986;11.868;2023-07-13T12:27:47;25.30;58.50
15394;DHT22;7795;47.986;11.868;2023-07-13T12:30:26;25.30;58.20
15394;DHT22;7795;47.986;11.868;2023-07-13T12:33:06;25.40;57.40
15394;DHT22;7795;47.986;11.868;2023-07-13T12:35:40;25.40;56.60
15394;DHT22;7795;47.986;11.868;2023-07-13T12:38:08;25.40;57.00
15394;DHT22;7795;47.986;11.868;2023-07-13T12:40:38;25.40;57.60
15394;DHT22;7795;47.986;11.868;2023-07-13T12:43:10;25.40;57.60
15394;DHT22;7795;47.986;11.868;2023-07-13T12:45:37;25.40;57.30
15394;DHT22;7795;47.986;11.868;2023-07-13T12:48:05;25.40;57.60
15394;DHT22;7795;47.986;11.868;2023-07-13T12:50:37;25.50;57.50
15394;DHT22;7795;47.986;11.868;2023-07-13T12:53:05;25.50;57.50
15394;DHT22;7795;47.986;11.868;2023-07-13T12:55:42;25.50;57.20
15394;DHT22;7795;47.986;11.868;2023-07-13T12:58:16;25.60;56.60
15394;DHT22;7795;47.986;11.868;2023-07-13T13:00:48;25.60;56.70
15394;DHT22;7795;47.986;11.868;2023-07-13T13:03:22;25.60;56.80
15394;DHT22;7795;47.986;11.868;2023-07-13T13:05:48;25.70;56.60
15394;DHT22;7795;47.986;11.868;2023-07-13T13:08:14;25.70;57.10
15394;DHT22;7795;47.986;11.868;2023-07-13T13:10:40;25.80;57.00
15394;DHT22;7795;47.986;11.868;2023-07-13T13:13:07;25.90;57.20
15394;DHT22;7795;47.986;11.868;2023-07-13T13:15:34;26.00;56.90
15394;DHT22;7795;47.986;11.868;2023-07-13T13:18:01;26.00;57.00
15394;DHT22;7795;47.986;11.868;2023-07-13T13:20:26;26.10;56.80
15394;DHT22;7795;47.986;11.868;2023-07-13T13:22:52;26.20;57.10
15394;DHT22;7795;47.986;11.868;2023-07-13T13:25:19;26.20;56.70
15394;DHT22;7795;47.986;11.868;2023-07-13T13:27:45;26.30;56.60
15394;DHT22;7795;47.986;11.868;2023-07-13T13:30:16;26.30;56.40
15394;DHT22;7795;47.986;11.868;2023-07-13T13:32:44;26.40;56.00
15394;DHT22;7795;47.986;11.868;2023-07-13T13:35:13;26.40;56.30
15394;DHT22;7795;47.986;11.868;2023-07-13T13:37:39;26.40;56.00
15394;DHT22;7795;47.986;11.868;2023-07-13T13:40:14;26.50;56.50
15394;DHT22;7795;47.986;11.868;2023-07-13T13:42:39;26.50;55.70
15394;DHT22;7795;47.986;11.868;2023-07-13T13:45:07;26.60;56.10
15394;DHT22;7795;47.986;11.868;2023-07-13T13:47:36;26.70;56.00
15394;DHT22;7795;47.986;11.868;2023-07-13T13:50:05;26.70;55.60
15394;DHT22;7795;47.986;11.868;2023-07-13T13:52:35;26.80;55.80
15394;DHT22;7795;47.986;11.868;2023-07-13T13:55:01;26.90;55.70
15394;DHT22;7795;47.986;11.868;2023-07-13T13:57:27;27.00;55.40
15394;DHT22;7795;47.986;11.868;2023-07-13T13:59:53;27.00;55.20
15394;DHT22;7795;47.986;11.868;2023-07-13T14:02:23;27.10;54.80
15394;DHT22;7795;47.986;11.868;2023-07-13T14:04:54;27.20;54.40
15394;DHT22;7795;47.986;11.868;2023-07-13T14:07:20;27.30;54.20
15394;DHT22;7795;47.986;11.868;2023-07-13T14:09:46;27.30;54.30
15394;DHT22;7795;47.986;11.868;2023-07-13T14:12:11;27.30;54.50
15394;DHT22;7795;47.986;11.868;2023-07-13T14:14:37;27.40;54.40
15394;DHT22;7795;47.986;11.868;2023-07-13T14:17:04;27.40;53.90
15394;DHT22;7795;47.986;11.868;2023-07-13T14:19:30;27.40;53.90
15394;DHT22;7795;47.986;11.868;2023-07-13T14:21:57;27.40;53.80
15394;DHT22;7795;47.986;11.868;2023-07-13T14:24:23;27.40;53.80
15394;DHT22;7795;47.986;11.868;2023-07-13T14:26:49;27.40;53.90
15394;DHT22;7795;47.986;11.868;2023-07-13T14:29:16;27.50;53.90
15394;DHT22;7795;47.986;11.868;2023-07-13T14:31:43;27.50;53.40
15394;DHT22;7795;47.986;11.868;2023-07-13T14:34:10;27.50;53.70
15394;DHT22;7795;47.986;11.868;2023-07-13T14:36:39;27.50;53.10
15394;DHT22;7795;47.986;11.868;2023-07-13T14:39:13;27.50;53.10
15394;DHT22;7795;47.986;11.868;2023-07-13T14:41:39;27.60;52.80
15394;DHT22;7795;47.986;11.868;2023-07-13T14:44:11;27.60;53.10
15394;DHT22;7795;47.986;11.868;2023-07-13T14:46:36;27.60;52.80
15394;DHT22;7795;47.986;11.868;2023-07-13T14:49:04;27.60;53.00
15394;DHT22;7795;47.986;11.868;2023-07-13T14:51:31;27.70;53.00
15394;DHT22;7795;47.986;11.868;2023-07-13T14:54:01;27.70;52.50
15394;DHT22;7795;47.986;11.868;2023-07-13T14:56:29;27.60;52.40
15394;DHT22;7795;47.986;11.868;2023-07-13T14:58:54;27.60;52.30
15394;DHT22;7795;47.986;11.868;2023-07-13T15:01:21;27.70;52.60
15394;DHT22;7795;47.986;11.868;2023-07-13T15:03:50;27.70;52.00
15394;DHT22;7795;47.986;11.868;2023-07-13T15:06:17;27.60;51.70
15394;DHT22;7795;47.986;11.868;2023-07-13T15:08:45;27.60;52.50
15394;DHT22;7795;47.986;11.868;2023-07-13T15:11:11;27.60;52.00
15394;DHT22;7795;47.986;11.868;2023-07-13T15:13:39;27.60;52.00
15394;DHT22;7795;47.986;11.868;2023-07-13T15:16:13;27.60;51.80
15394;DHT22;7795;47.986;11.868;2023-07-13T15:18:40;27.60;51.40
15394;DHT22;7795;47.986;11.868;2023-07-13T15:21:09;27.60;51.60
15394;DHT22;7795;47.986;11.868;2023-07-13T15:23:35;27.60;51.20
15394;DHT22;7795;47.986;11.868;2023-07-13T15:26:00;27.50;51.50
15394;DHT22;7795;47.986;11.868;2023-07-13T15:28:26;27.50;51.50
15394;DHT22;7795;47.986;11.868;2023-07-13T15:30:53;27.50;51.30
15394;DHT22;7795;47.986;11.868;2023-07-13T15:33:23;27.50;52.10